68392 XUMU-UUMU
Flight info
| Callsign | 68392 |
|---|---|
| Flight time | N/A |
| Altitude | 29000 |
| Route | /ZONA UUR269/ 5700N04002E OLATU |
| Aircraft | A148/M-SDFGIRWY/LB1 |
Departure
| Time | N/A |
|---|---|
| Airport | XUMU |
Arrival
| Time | 2026-04-25 23:04 |
|---|---|
| Airport | Chkalovskiy Air Base (UUMU) |
| Time | Latitude | Longitude | Altitude | Speed | Heading |
|---|---|---|---|---|---|
| 2026-04-25 22:35 | 56.33981 | 40.43022 | 28647 ft | 455 kts | 129° |
| 2026-04-25 22:35 | 56.31981 | 40.47438 | 28647 ft | 455 kts | 129° |
| 2026-04-25 22:36 | 56.29765 | 40.51449 | 28657 ft | 452 kts | 146° |
| 2026-04-25 22:36 | 56.26978 | 40.53947 | 28669 ft | 445 kts | 168° |
| 2026-04-25 22:36 | 56.24986 | 40.54635 | 28680 ft | 439 kts | 179° |
| 2026-04-25 22:36 | 56.20941 | 40.55839 | 28680 ft | 445 kts | 169° |
| 2026-04-25 22:37 | 56.14870 | 40.57888 | 28664 ft | 441 kts | 182° |
| 2026-04-25 22:37 | 56.11885 | 40.57255 | 28677 ft | 426 kts | 204° |
| 2026-04-25 22:37 | 56.09341 | 40.54940 | 28682 ft | 410 kts | 225° |
| 2026-04-25 22:38 | 56.07436 | 40.51310 | 28696 ft | 396 kts | 241° |
| 2026-04-25 22:38 | 56.05832 | 40.47274 | 28577 ft | 400 kts | 241° |
| 2026-04-25 22:38 | 56.04225 | 40.43167 | 28022 ft | 404 kts | 242° |
| 2026-04-25 22:38 | 56.02619 | 40.38975 | 27449 ft | 410 kts | 241° |
| 2026-04-25 22:39 | 56.01013 | 40.34806 | 26872 ft | 404 kts | 241° |
| 2026-04-25 22:39 | 55.99413 | 40.30704 | 26289 ft | 400 kts | 240° |
| 2026-04-25 22:39 | 55.97814 | 40.26664 | 25720 ft | 396 kts | 240° |
| 2026-04-25 22:39 | 55.96223 | 40.22690 | 25168 ft | 391 kts | 240° |
| 2026-04-25 22:40 | 55.94648 | 40.18763 | 24622 ft | 387 kts | 239° |
| 2026-04-25 22:40 | 55.93093 | 40.14875 | 24100 ft | 384 kts | 239° |
| 2026-04-25 22:40 | 55.92050 | 40.12270 | 23761 ft | 381 kts | 239° |
| 2026-04-25 22:40 | 55.90505 | 40.08465 | 23266 ft | 376 kts | 239° |
| 2026-04-25 22:41 | 55.88971 | 40.04711 | 22669 ft | 373 kts | 239° |
| 2026-04-25 22:41 | 55.87478 | 40.01040 | 22091 ft | 369 kts | 239° |
| 2026-04-25 22:41 | 55.85977 | 39.97351 | 21535 ft | 366 kts | 238° |
| 2026-04-25 22:41 | 55.84490 | 39.93699 | 20999 ft | 363 kts | 238° |
| 2026-04-25 22:42 | 55.83020 | 39.90083 | 20528 ft | 359 kts | 238° |
| 2026-04-25 22:42 | 55.81560 | 39.86489 | 20083 ft | 358 kts | 238° |
| 2026-04-25 22:42 | 55.80300 | 39.82744 | 19786 ft | 348 kts | 250° |
| 2026-04-25 22:42 | 55.79531 | 39.78702 | 19677 ft | 344 kts | 258° |
| 2026-04-25 22:43 | 55.79016 | 39.74566 | 19642 ft | 342 kts | 263° |
| 2026-04-25 22:43 | 55.78638 | 39.70418 | 18955 ft | 342 kts | 265° |
| 2026-04-25 22:43 | 55.78346 | 39.66239 | 18392 ft | 339 kts | 266° |
| 2026-04-25 22:43 | 55.78092 | 39.62096 | 17851 ft | 337 kts | 266° |
| 2026-04-25 22:44 | 55.77847 | 39.57981 | 17236 ft | 334 kts | 266° |
| 2026-04-25 22:44 | 55.77603 | 39.53899 | 16638 ft | 331 kts | 266° |
| 2026-04-25 22:44 | 55.77341 | 39.49854 | 16041 ft | 328 kts | 265° |
| 2026-04-25 22:44 | 55.77081 | 39.45845 | 15457 ft | 325 kts | 265° |
| 2026-04-25 22:45 | 55.76822 | 39.41875 | 14890 ft | 322 kts | 265° |
| 2026-04-25 22:45 | 55.76547 | 39.37934 | 14332 ft | 321 kts | 265° |
| 2026-04-25 22:45 | 55.76264 | 39.34020 | 13775 ft | 319 kts | 264° |
| 2026-04-25 22:45 | 55.75982 | 39.30127 | 13208 ft | 317 kts | 264° |
| 2026-04-25 22:46 | 55.75702 | 39.26253 | 12586 ft | 315 kts | 264° |
| 2026-04-25 22:46 | 55.75422 | 39.22401 | 11995 ft | 314 kts | 265° |
| 2026-04-25 22:46 | 55.75163 | 39.18599 | 11723 ft | 307 kts | 265° |
| 2026-04-25 22:46 | 55.74908 | 39.14829 | 11632 ft | 307 kts | 265° |
| 2026-04-25 22:47 | 55.74641 | 39.11087 | 11194 ft | 307 kts | 265° |
| 2026-04-25 22:47 | 55.74360 | 39.07321 | 10622 ft | 307 kts | 265° |
| 2026-04-25 22:47 | 55.74096 | 39.03584 | 10258 ft | 305 kts | 265° |
| 2026-04-25 22:47 | 55.73835 | 38.99857 | 9905 ft | 304 kts | 265° |
| 2026-04-25 22:48 | 55.73573 | 38.96142 | 9546 ft | 303 kts | 265° |
| 2026-04-25 22:48 | 55.73306 | 38.92443 | 9188 ft | 302 kts | 265° |
| 2026-04-25 22:48 | 55.73016 | 38.88767 | 8826 ft | 300 kts | 264° |
| 2026-04-25 22:48 | 55.72723 | 38.85109 | 8474 ft | 299 kts | 264° |
| 2026-04-25 22:49 | 55.72425 | 38.81465 | 8149 ft | 297 kts | 264° |
| 2026-04-25 22:49 | 55.72133 | 38.77849 | 7843 ft | 296 kts | 265° |
| 2026-04-25 22:49 | 55.71858 | 38.74233 | 7560 ft | 295 kts | 265° |
| 2026-04-25 22:49 | 55.71627 | 38.70632 | 7273 ft | 291 kts | 272° |
| 2026-04-25 22:50 | 55.72114 | 38.67237 | 7008 ft | 286 kts | 303° |
| 2026-04-25 22:50 | 55.73376 | 38.64532 | 6783 ft | 285 kts | 313° |
| 2026-04-25 22:50 | 55.74697 | 38.61924 | 6536 ft | 283 kts | 311° |
| 2026-04-25 22:50 | 55.76000 | 38.59334 | 6284 ft | 278 kts | 312° |
| 2026-04-25 22:51 | 55.77277 | 38.56805 | 6027 ft | 272 kts | 311° |
| 2026-04-25 22:51 | 55.78513 | 38.54307 | 5760 ft | 266 kts | 311° |
| 2026-04-25 22:51 | 55.79698 | 38.51857 | 5556 ft | 256 kts | 311° |
| 2026-04-25 22:51 | 55.80819 | 38.49496 | 5494 ft | 245 kts | 310° |
| 2026-04-25 22:52 | 55.81910 | 38.47151 | 5447 ft | 248 kts | 310° |
| 2026-04-25 22:52 | 55.83021 | 38.44838 | 5348 ft | 245 kts | 311° |
| 2026-04-25 22:52 | 55.84142 | 38.42552 | 5272 ft | 245 kts | 311° |
| 2026-04-25 22:52 | 55.84884 | 38.41038 | 5212 ft | 245 kts | 311° |
| 2026-04-25 22:53 | 55.86354 | 38.38004 | 5084 ft | 244 kts | 310° |
| 2026-04-25 22:53 | 55.87461 | 38.35706 | 5007 ft | 244 kts | 310° |
| 2026-04-25 22:53 | 55.88566 | 38.33410 | 4893 ft | 244 kts | 310° |
| 2026-04-25 22:53 | 55.89664 | 38.31121 | 4793 ft | 244 kts | 310° |
| 2026-04-25 22:54 | 55.90767 | 38.28825 | 4696 ft | 244 kts | 310° |
| 2026-04-25 22:54 | 55.91865 | 38.26532 | 4604 ft | 243 kts | 310° |
| 2026-04-25 22:54 | 55.92964 | 38.24240 | 4486 ft | 243 kts | 310° |
| 2026-04-25 22:54 | 55.94062 | 38.21946 | 4385 ft | 243 kts | 310° |
| 2026-04-25 22:55 | 55.95159 | 38.19659 | 4282 ft | 242 kts | 310° |
| 2026-04-25 22:55 | 55.96256 | 38.17377 | 4170 ft | 242 kts | 310° |
| 2026-04-25 22:55 | 55.97355 | 38.15093 | 4063 ft | 242 kts | 310° |
| 2026-04-25 22:55 | 55.98450 | 38.12816 | 3984 ft | 240 kts | 310° |
| 2026-04-25 22:56 | 55.99527 | 38.10580 | 3897 ft | 234 kts | 310° |
| 2026-04-25 22:56 | 56.00585 | 38.08389 | 3761 ft | 231 kts | 310° |
| 2026-04-25 22:56 | 56.01623 | 38.06237 | 3617 ft | 226 kts | 310° |
| 2026-04-25 22:56 | 56.02643 | 38.04104 | 3474 ft | 225 kts | 310° |
| 2026-04-25 22:57 | 56.03651 | 38.01966 | 3340 ft | 225 kts | 309° |
| 2026-04-25 22:57 | 56.04656 | 37.99835 | 3210 ft | 224 kts | 310° |
| 2026-04-25 22:57 | 56.05669 | 37.97719 | 3072 ft | 222 kts | 310° |
| 2026-04-25 22:57 | 56.06527 | 37.95492 | 2929 ft | 215 kts | 288° |
| 2026-04-25 22:58 | 56.06448 | 37.92896 | 2807 ft | 214 kts | 247° |
| 2026-04-25 22:58 | 56.05622 | 37.90697 | 2681 ft | 212 kts | 235° |
| 2026-04-25 22:58 | 56.04646 | 37.88730 | 2545 ft | 210 kts | 230° |
| 2026-04-25 22:58 | 56.03591 | 37.86941 | 2451 ft | 206 kts | 226° |
| 2026-04-25 22:59 | 56.02541 | 37.85328 | 2472 ft | 191 kts | 225° |
| 2026-04-25 22:59 | 56.01534 | 37.83851 | 2484 ft | 183 kts | 223° |
| 2026-04-25 22:59 | 56.00390 | 37.83235 | 2424 ft | 172 kts | 175° |
| 2026-04-25 22:59 | 55.99277 | 37.84028 | 2446 ft | 174 kts | 157° |
| 2026-04-25 23:00 | 55.98232 | 37.85139 | 2454 ft | 177 kts | 145° |
| 2026-04-25 23:00 | 55.97284 | 37.86545 | 2451 ft | 176 kts | 140° |
| 2026-04-25 23:00 | 55.96450 | 37.87980 | 2421 ft | 156 kts | 135° |
| 2026-04-25 23:00 | 55.95763 | 37.89317 | 2401 ft | 140 kts | 133° |
| 2026-04-25 23:01 | 55.95116 | 37.90650 | 2420 ft | 143 kts | 131° |
| 2026-04-25 23:01 | 55.94465 | 37.92036 | 2250 ft | 149 kts | 131° |
| 2026-04-25 23:01 | 55.93806 | 37.93447 | 2053 ft | 147 kts | 131° |
| 2026-04-25 23:01 | 55.93153 | 37.94840 | 1839 ft | 146 kts | 131° |
| 2026-04-25 23:02 | 55.92505 | 37.96214 | 1630 ft | 143 kts | 132° |
| 2026-04-25 23:02 | 55.91874 | 37.97543 | 1433 ft | 138 kts | 133° |
| 2026-04-25 23:02 | 55.91254 | 37.98825 | 1255 ft | 134 kts | 133° |
| 2026-04-25 23:02 | 55.90656 | 38.00071 | 1089 ft | 132 kts | 132° |
| 2026-04-25 23:03 | 55.90065 | 38.01310 | 907 ft | 130 kts | 132° |
| 2026-04-25 23:03 | 55.89486 | 38.02512 | 735 ft | 126 kts | 133° |
| 2026-04-25 23:03 | 55.88933 | 38.03686 | 564 ft | 121 kts | 131° |
| 2026-04-25 23:03 | 55.88422 | 38.04742 | 511 ft | 101 kts | 131° |
| 2026-04-25 23:04 | 55.88054 | 38.05493 | 508 ft | 51 kts | 130° |
| 2026-04-25 23:04 | 55.87959 | 38.05722 | 509 ft | 17 kts | 120° |